Time;durP1;ratioP1;P1;durP2;ratioP2;P2;SDS_P1;SDS_P2;PMS_P1;PMS_P2;Temp;Humidity;BMP_temperature;BMP_pressure;BME280_temperature;BME280_humidity;BME280_pressure;Samples;Min_cycle;Max_cycle;Signal;HPM_P1;HPM_P2
2021/04/29 00:00:20;;;;;;;4.13;2.50;;;;;;;8.74;58.96;100807.78;5030813;28;20406;-47
2021/04/29 00:02:55;;;;;;;3.13;2.30;;;;;;;8.77;58.84;100809.88;5032945;28;20103;-47
2021/04/29 00:05:28;;;;;;;6.05;2.03;;;;;;;8.75;59.09;100812.19;5033037;28;20084;-46
2021/04/29 00:07:55;;;;;;;7.45;2.22;;;;;;;8.77;59.02;100809.06;5033050;28;20115;-47
2021/04/29 00:10:26;;;;;;;7.70;2.50;;;;;;;8.68;59.51;100811.91;5032255;28;20088;-47
2021/04/29 00:12:53;;;;;;;9.77;2.97;;;;;;;8.61;59.59;100814.34;5031168;28;20042;-47
2021/04/29 00:15:19;;;;;;;9.18;2.88;;;;;;;8.57;59.95;100813.38;5031661;28;20542;-47
2021/04/29 00:17:46;;;;;;;3.80;2.20;;;;;;;8.57;60.28;100816.16;5032771;28;20120;-49
2021/04/29 00:20:15;;;;;;;6.25;2.70;;;;;;;8.55;60.22;100805.44;5032601;28;20057;-46
2021/04/29 00:22:44;;;;;;;6.43;2.60;;;;;;;8.52;59.91;100808.06;5015573;28;20046;-46
2021/04/29 00:25:12;;;;;;;5.28;2.83;;;;;;;8.42;60.63;100805.63;5032870;28;20128;-46
2021/04/29 00:27:38;;;;;;;5.28;2.35;;;;;;;8.40;60.76;100807.91;5032338;28;20073;-48
2021/04/29 00:30:07;;;;;;;5.10;2.35;;;;;;;8.39;60.84;100806.31;5032087;28;20460;-45
2021/04/29 00:32:34;;;;;;;3.45;2.70;;;;;;;8.33;60.68;100802.09;5032464;28;20108;-46
2021/04/29 00:35:01;;;;;;;6.97;2.70;;;;;;;8.30;60.98;100800.00;5014740;28;20055;-48
2021/04/29 00:37:27;;;;;;;5.47;2.97;;;;;;;8.28;61.01;100799.53;5012581;28;20219;-48
2021/04/29 00:39:53;;;;;;;4.35;2.58;;;;;;;8.25;61.21;100797.38;5022018;28;20095;-46
2021/04/29 00:42:20;;;;;;;4.32;2.72;;;;;;;8.24;61.39;100801.28;5032084;28;20041;-46
2021/04/29 00:44:46;;;;;;;10.05;3.30;;;;;;;8.24;61.50;100798.50;5021082;28;20099;-47
2021/04/29 00:47:12;;;;;;;3.72;2.00;;;;;;;8.23;61.50;100802.44;5032399;28;20046;-49
2021/04/29 00:49:39;;;;;;;5.32;2.45;;;;;;;8.20;61.42;100803.06;5031263;28;20052;-46
2021/04/29 00:52:06;;;;;;;2.83;2.25;;;;;;;8.18;61.87;100813.63;5031930;28;20085;-46
2021/04/29 00:54:32;;;;;;;4.05;2.10;;;;;;;8.18;61.51;100805.34;5014150;28;20124;-46
2021/04/29 00:56:58;;;;;;;7.28;2.70;;;;;;;8.19;61.79;100804.19;5032049;28;20054;-46
2021/04/29 00:59:26;;;;;;;6.97;2.33;;;;;;;8.14;61.82;100799.69;5031205;28;20066;-47
2021/04/29 01:02:00;;;;;;;2.83;2.30;;;;;;;8.05;61.97;100803.59;5030589;28;20152;-45
2021/04/29 01:04:39;;;;;;;6.93;2.30;;;;;;;7.99;62.63;100789.97;5013958;28;20091;-47
2021/04/29 01:07:10;;;;;;;5.70;2.50;;;;;;;7.96;62.07;100792.59;5027501;28;20115;-46
2021/04/29 01:09:41;;;;;;;2.80;2.17;;;;;;;7.91;62.46;100796.31;5012026;28;20048;-47
2021/04/29 01:12:16;;;;;;;6.28;3.67;;;;;;;7.86;62.14;100799.22;5013902;28;20752;-47
2021/04/29 01:14:43;;;;;;;4.40;2.38;;;;;;;7.83;62.28;100793.56;5031074;28;20052;-48
2021/04/29 01:17:11;;;;;;;5.13;2.17;;;;;;;7.84;62.31;100790.47;5031620;28;20057;-49
2021/04/29 01:19:43;;;;;;;4.60;2.47;;;;;;;7.81;62.13;100793.88;5031526;28;20038;-46
2021/04/29 01:22:12;;;;;;;2.70;1.80;;;;;;;7.76;62.29;100783.03;5030882;28;20084;-46
2021/04/29 01:25:04;;;;;;;2.72;1.95;;;;;;;7.74;62.36;100785.31;5031563;28;20057;-48
2021/04/29 01:27:31;;;;;;;3.10;2.33;;;;;;;7.74;61.91;100784.47;5032082;28;20450;-47
2021/04/29 01:29:58;;;;;;;8.15;2.55;;;;;;;7.72;62.00;100792.28;5030696;28;20327;-46
2021/04/29 01:32:25;;;;;;;4.00;2.08;;;;;;;7.64;62.13;100788.38;5014127;28;20045;-46
2021/04/29 01:34:54;;;;;;;6.55;2.35;;;;;;;7.63;62.39;100788.69;5030106;28;20045;-46
2021/04/29 01:37:20;;;;;;;4.30;2.03;;;;;;;7.64;62.25;100784.81;5030760;28;20140;-45
2021/04/29 01:39:48;;;;;;;2.05;1.50;;;;;;;7.57;62.80;100787.25;5029739;28;20037;-51
2021/04/29 01:42:15;;;;;;;1.98;1.58;;;;;;;7.54;62.53;100791.47;5031726;28;20128;-47
2021/04/29 01:44:41;;;;;;;2.85;1.42;;;;;;;7.55;62.62;100787.56;5020793;28;20045;-47
2021/04/29 01:47:09;;;;;;;2.85;1.48;;;;;;;7.53;62.45;100791.78;5020099;28;20491;-49
2021/04/29 01:49:36;;;;;;;1.92;1.48;;;;;;;7.51;62.70;100785.78;5025191;28;20038;-47
2021/04/29 01:52:03;;;;;;;4.30;1.75;;;;;;;7.51;62.81;100789.38;5025693;28;20063;-46
2021/04/29 01:54:30;;;;;;;3.90;1.83;;;;;;;7.51;62.86;100789.38;5030754;28;20060;-46
2021/04/29 01:56:56;;;;;;;2.70;1.48;;;;;;;7.49;62.73;100797.16;5030495;28;20049;-46
2021/04/29 01:59:23;;;;;;;5.18;1.95;;;;;;;7.48;62.99;100795.50;5028060;28;20065;-46
2021/04/29 02:01:51;;;;;;;3.03;1.98;;;;;;;7.45;62.56;100790.66;5027812;28;20065;-49
2021/04/29 02:04:19;;;;;;;5.82;1.88;;;;;;;7.44;62.79;100794.53;5029291;28;20073;-46
2021/04/29 02:06:46;;;;;;;3.22;1.80;;;;;;;7.45;63.04;100798.91;5031066;28;20053;-46
2021/04/29 02:09:14;;;;;;;4.97;2.10;;;;;;;7.45;63.11;100792.59;5030930;28;20384;-49
2021/04/29 02:11:57;;;;;;;3.53;1.85;;;;;;;7.44;63.06;100794.53;5034693;28;20128;-46
2021/04/29 02:14:48;;;;;;;3.38;2.10;;;;;;;7.46;63.02;100784.00;5033755;28;20129;-46
2021/04/29 02:17:34;;;;;;;3.47;1.88;;;;;;;7.45;63.32;100784.31;5023392;28;20131;-46
2021/04/29 02:20:05;;;;;;;5.95;1.80;;;;;;;7.44;63.33;100786.25;5034579;28;20521;-46
2021/04/29 02:22:34;;;;;;;3.10;1.88;;;;;;;7.39;63.15;100793.91;5034923;28;20571;-46
2021/04/29 02:25:01;;;;;;;3.70;2.08;;;;;;;7.39;63.25;100794.69;5034213;28;20406;-46
2021/04/29 02:27:27;;;;;;;4.97;2.05;;;;;;;7.40;63.48;100796.31;5017343;28;20034;-46
2021/04/29 02:29:54;;;;;;;4.07;2.60;;;;;;;7.40;63.05;100790.81;5033709;28;20034;-49
2021/04/29 02:32:21;;;;;;;3.72;2.15;;;;;;;7.32;63.33;100792.44;5034660;28;20049;-48
2021/04/29 02:34:47;;;;;;;5.28;2.03;;;;;;;7.30;63.66;100791.13;5034135;28;20056;-47
2021/04/29 02:37:14;;;;;;;3.03;1.83;;;;;;;7.26;63.61;100785.44;5034207;28;20567;-46
2021/04/29 02:39:41;;;;;;;6.95;1.60;;;;;;;7.24;63.50;100776.69;5034738;28;20041;-50
2021/04/29 02:42:08;;;;;;;2.97;1.75;;;;;;;7.20;63.70;100791.44;5034427;28;20046;-46
2021/04/29 02:44:35;;;;;;;7.53;2.40;;;;;;;7.18;63.61;100789.00;5033942;28;20053;-48
2021/04/29 02:47:02;;;;;;;6.45;1.85;;;;;;;7.11;63.60;100788.66;5028083;28;20128;-48
2021/04/29 02:49:32;;;;;;;6.60;2.00;;;;;;;7.08;63.95;100782.97;5025373;28;20554;-48
2021/04/29 02:52:00;;;;;;;4.38;1.75;;;;;;;7.07;63.93;100787.66;5038475;28;20064;-49
2021/04/29 02:54:29;;;;;;;5.75;2.10;;;;;;;7.06;63.64;100791.56;5033644;28;20056;-47
2021/04/29 02:56:55;;;;;;;4.95;2.30;;;;;;;7.03;64.05;100788.63;5033840;28;20103;-50
2021/04/29 02:59:22;;;;;;;5.50;1.65;;;;;;;7.06;63.77;100788.81;5033819;28;20491;-49
2021/04/29 03:01:48;;;;;;;4.28;1.88;;;;;;;7.08;63.84;100782.97;5033568;28;20120;-52
2021/04/29 03:04:15;;;;;;;5.05;2.10;;;;;;;7.06;63.71;100791.56;5033282;28;20049;-50
2021/04/29 03:06:41;;;;;;;4.38;1.65;;;;;;;6.99;63.84;100784.91;5033269;28;20081;-47
2021/04/29 03:09:07;;;;;;;5.68;2.05;;;;;;;6.87;64.10;100793.78;5034106;28;20079;-50
2021/04/29 03:11:34;;;;;;;3.28;2.95;;;;;;;6.77;64.58;100796.00;5033796;28;20045;-48
2021/04/29 03:14:01;;;;;;;5.55;1.92;;;;;;;6.77;64.58;100787.75;5033585;28;20037;-48
2021/04/29 03:16:27;;;;;;;5.20;1.90;;;;;;;6.86;64.05;100788.63;5033371;28;20124;-50
2021/04/29 03:18:54;;;;;;;6.47;2.28;;;;;;;6.87;64.23;100790.22;5032725;28;20577;-47
2021/04/29 03:21:20;;;;;;;3.00;2.00;;;;;;;6.84;64.14;100785.34;5032784;28;20100;-52
2021/04/29 03:23:48;;;;;;;3.42;1.77;;;;;;;6.78;64.03;100783.88;5032756;28;20057;-48
2021/04/29 03:26:14;;;;;;;4.50;1.60;;;;;;;6.64;64.36;100789.50;5034188;28;20045;-46
2021/04/29 03:28:40;;;;;;;3.38;2.22;;;;;;;6.61;64.86;100790.94;5033190;28;20092;-49
2021/04/29 03:31:07;;;;;;;4.07;1.67;;;;;;;6.60;64.56;100786.56;5032306;28;20103;-49
2021/04/29 03:33:34;;;;;;;2.63;1.90;;;;;;;6.56;64.88;100791.09;5033451;28;20044;-49
2021/04/29 03:36:01;;;;;;;4.22;2.05;;;;;;;6.50;64.69;100783.28;5032901;28;20111;-49
2021/04/29 03:38:27;;;;;;;4.35;1.58;;;;;;;6.45;64.92;100788.94;5036446;28;20076;-47
2021/04/29 03:40:53;;;;;;;4.03;1.95;;;;;;;6.43;64.85;100786.50;5010566;28;20128;-48
2021/04/29 03:43:20;;;;;;;4.07;2.22;;;;;;;6.35;65.05;100786.47;5029277;28;20548;-50
2021/04/29 03:45:46;;;;;;;4.85;1.92;;;;;;;6.32;65.37;100787.09;5003637;28;20096;-50
2021/04/29 03:48:13;;;;;;;4.38;1.98;;;;;;;6.33;65.13;100784.00;5028547;28;20095;-50
2021/04/29 03:50:40;;;;;;;3.28;2.03;;;;;;;6.30;65.20;100778.34;5028077;28;20042;-48
2021/04/29 03:53:06;;;;;;;4.90;1.95;;;;;;;6.27;65.60;100785.28;5032071;28;20044;-49
2021/04/29 03:55:32;;;;;;;8.05;2.60;;;;;;;6.24;65.42;100785.91;5021232;28;20077;-49
2021/04/29 03:57:59;;;;;;;5.32;1.95;;;;;;;6.21;65.51;100781.03;5001969;28;20078;-51
2021/04/29 04:00:25;;;;;;;4.85;2.22;;;;;;;6.19;65.70;100788.81;5012546;28;20400;-47
2021/04/29 04:02:52;;;;;;;3.10;2.10;;;;;;;6.18;65.84;100786.34;5013250;28;20074;-47
2021/04/29 04:05:18;;;;;;;4.32;2.45;;;;;;;6.28;65.29;100786.06;5012651;28;20054;-48
2021/04/29 04:07:44;;;;;;;4.22;2.17;;;;;;;6.40;64.87;100791.81;5012927;28;20100;-53
2021/04/29 04:10:11;;;;;;;3.60;1.70;;;;;;;6.39;64.72;100790.19;5013119;28;20073;-52
2021/04/29 04:12:39;;;;;;;9.43;2.20;;;;;;;6.35;65.12;100784.53;5017756;28;20067;-48
2021/04/29 04:15:07;;;;;;;5.70;2.08;;;;;;;6.36;64.90;100779.81;5013752;28;20046;-46
2021/04/29 04:17:33;;;;;;;3.03;2.08;;;;;;;6.32;64.90;100776.91;5005250;28;20042;-46
2021/04/29 04:20:18;;;;;;;5.80;2.60;;;;;;;6.26;65.06;100783.66;5003279;28;20065;-50
2021/04/29 04:22:45;;;;;;;4.93;2.20;;;;;;;6.19;65.41;100777.81;5013100;28;20050;-48
2021/04/29 04:25:11;;;;;;;5.68;2.47;;;;;;;6.28;65.11;100775.06;5012037;28;20061;-49
2021/04/29 04:27:38;;;;;;;3.47;2.65;;;;;;;6.29;65.21;100783.03;5013057;28;20080;-48
2021/04/29 04:30:06;;;;;;;5.35;2.15;;;;;;;6.16;65.38;100772.94;5016702;28;20124;-47
2021/04/29 04:32:32;;;;;;;3.70;2.08;;;;;;;6.12;65.73;100780.16;5012500;28;20041;-51
2021/04/29 04:35:02;;;;;;;6.88;2.33;;;;;;;6.05;65.84;100774.31;5012861;28;20508;-47
2021/04/29 04:37:29;;;;;;;6.72;2.53;;;;;;;6.02;66.46;100785.94;5011242;28;20042;-46
2021/04/29 04:39:55;;;;;;;3.85;1.92;;;;;;;6.00;66.40;100785.44;5012450;28;20042;-48
2021/04/29 04:42:22;;;;;;;5.95;2.47;;;;;;;6.02;66.30;100791.44;5012424;28;20466;-46
2021/04/29 04:44:48;;;;;;;7.05;2.47;;;;;;;6.02;66.51;100795.00;5011552;28;20052;-47
2021/04/29 04:47:14;;;;;;;6.47;2.17;;;;;;;6.02;66.61;100796.94;5028889;28;20532;-46
2021/04/29 04:49:41;;;;;;;7.13;2.05;;;;;;;6.00;66.81;100796.44;5011739;28;20034;-47
2021/04/29 04:52:07;;;;;;;13.23;2.10;;;;;;;6.01;66.60;100787.09;4998412;28;20096;-47
2021/04/29 04:54:35;;;;;;;5.47;1.73;;;;;;;5.99;66.65;100800.31;5011797;28;20042;-46
2021/04/29 04:57:01;;;;;;;6.38;3.15;;;;;;;5.96;66.93;100800.91;5016233;28;20057;-47
2021/04/29 04:59:28;;;;;;;6.53;2.35;;;;;;;5.97;66.59;100797.06;5023582;28;20104;-50
2021/04/29 05:01:55;;;;;;;5.65;2.22;;;;;;;5.98;66.84;100791.25;5028925;28;20087;-48
2021/04/29 05:04:27;;;;;;;8.02;2.28;;;;;;;5.94;66.93;100794.94;5015489;28;20049;-49
2021/04/29 05:06:54;;;;;;;;;;;;;;;5.89;67.20;100797.81;5032288;28;20056;-50
2021/04/29 05:09:21;;;;;;;6.82;2.70;;;;;;;5.86;66.86;100795.69;5017339;28;19921;-46
2021/04/29 05:11:47;;;;;;;7.85;2.17;;;;;;;5.85;66.95;100805.06;5013257;28;20042;-47
2021/04/29 05:14:14;;;;;;;8.35;1.85;;;;;;;5.84;67.20;100789.66;5011723;28;20069;-47
2021/04/29 05:16:40;;;;;;;4.57;2.35;;;;;;;5.84;67.29;100803.41;5026807;28;20041;-47
2021/04/29 05:19:07;;;;;;;7.25;2.30;;;;;;;5.81;67.37;100795.78;5011819;28;20479;-47
2021/04/29 05:21:33;;;;;;;7.25;2.33;;;;;;;5.79;67.25;100798.03;5012980;28;20080;-48
2021/04/29 05:23:59;;;;;;;6.07;2.08;;;;;;;5.81;67.41;100798.53;4994612;28;20045;-48
2021/04/29 05:26:26;;;;;;;6.22;1.92;;;;;;;5.79;67.58;100806.28;5026683;28;20049;-49
2021/04/29 05:28:52;;;;;;;4.53;1.98;;;;;;;5.78;67.34;100793.66;5031679;28;20037;-47
2021/04/29 05:31:18;;;;;;;5.30;2.00;;;;;;;5.78;67.33;100810.13;5000250;28;20096;-47
2021/04/29 05:33:45;;;;;;;4.68;1.95;;;;;;;5.76;67.75;100806.91;5014595;28;20503;-46
2021/04/29 05:36:11;;;;;;;5.50;1.90;;;;;;;5.75;67.45;100805.25;5011978;28;20084;-49
2021/04/29 05:38:37;;;;;;;9.10;2.60;;;;;;;5.77;67.58;100803.03;5013356;28;20140;-47
2021/04/29 05:41:04;;;;;;;6.00;2.30;;;;;;;5.76;67.46;100804.97;5003701;28;20121;-47
2021/04/29 05:43:31;;;;;;;7.85;1.92;;;;;;;5.82;67.57;100805.66;5018859;28;20042;-48
2021/04/29 05:45:58;;;;;;;4.47;1.77;;;;;;;5.85;67.32;100811.34;5024212;28;20487;-47
2021/04/29 05:48:24;;;;;;;6.00;2.30;;;;;;;5.86;67.64;100806.69;5019031;28;20096;-47
2021/04/29 05:50:51;;;;;;;4.97;2.08;;;;;;;5.89;67.29;100806.88;5013718;28;20060;-46
2021/04/29 05:53:17;;;;;;;12.63;2.30;;;;;;;5.90;67.37;100814.00;5026854;28;20132;-48
2021/04/29 05:55:43;;;;;;;6.40;2.30;;;;;;;5.98;67.51;100815.97;5022260;28;20495;-48
2021/04/29 05:58:09;;;;;;;6.32;2.53;;;;;;;6.06;67.14;100820.72;5006075;28;20049;-46
2021/04/29 06:00:36;;;;;;;6.15;2.50;;;;;;;6.14;66.86;100819.97;5026259;28;20045;-51
2021/04/29 06:03:03;;;;;;;5.38;2.22;;;;;;;6.15;66.63;100826.28;5031043;28;20823;-47
2021/04/29 06:05:29;;;;;;;5.40;2.22;;;;;;;6.17;66.78;100829.50;5031119;28;20509;-49
2021/04/29 06:07:59;;;;;;;8.27;2.42;;;;;;;6.15;67.22;100815.28;5014228;28;20061;-46
2021/04/29 06:10:26;;;;;;;7.10;2.83;;;;;;;6.13;67.11;100823.84;5031004;28;20564;-50
2021/04/29 06:12:53;;;;;;;9.35;2.38;;;;;;;6.09;67.69;100828.34;5031505;28;20049;-47
2021/04/29 06:15:20;;;;;;;7.47;2.60;;;;;;;6.09;67.66;100828.34;5026262;28;20088;-48
2021/04/29 06:17:46;;;;;;;6.53;2.40;;;;;;;6.12;67.87;100821.41;5031357;28;20458;-49
2021/04/29 06:20:14;;;;;;;5.38;2.30;;;;;;;6.20;68.19;100819.81;5031604;28;20041;-46
2021/04/29 06:22:42;;;;;;;8.50;2.20;;;;;;;6.25;67.79;100828.75;5030942;28;20133;-47
2021/04/29 06:25:10;;;;;;;5.18;2.22;;;;;;;6.28;68.23;100824.56;5031391;28;20042;-47
2021/04/29 06:27:37;;;;;;;5.25;2.35;;;;;;;6.32;67.98;100823.66;5030741;28;20053;-46
2021/04/29 06:30:05;;;;;;;7.45;2.25;;;;;;;6.38;68.00;100830.63;5009858;28;20148;-47
2021/04/29 06:32:31;;;;;;;6.75;2.58;;;;;;;6.44;68.09;100832.09;5028065;28;20776;-47
2021/04/29 06:34:58;;;;;;;7.70;2.47;;;;;;;6.50;67.81;100825.34;5031639;28;20052;-52
2021/04/29 06:37:24;;;;;;;5.55;2.47;;;;;;;6.55;67.63;100830.72;5031110;28;20088;-46
2021/04/29 06:39:50;;;;;;;5.38;2.03;;;;;;;6.64;67.73;100831.59;5030989;28;20091;-46
2021/04/29 06:42:17;;;;;;;5.80;2.40;;;;;;;6.68;67.81;100821.56;5031076;28;20051;-47
2021/04/29 06:44:43;;;;;;;9.00;2.08;;;;;;;6.73;67.64;100832.41;5030831;28;20127;-50
2021/04/29 06:47:10;;;;;;;5.63;2.70;;;;;;;6.85;67.72;100831.00;5031044;28;20364;-49
2021/04/29 06:49:38;;;;;;;7.22;4.15;;;;;;;6.95;67.43;100830.72;5031316;28;20546;-46
2021/04/29 06:52:04;;;;;;;8.93;3.33;;;;;;;7.08;67.26;100840.78;5030574;28;20045;-49
2021/04/29 06:54:30;;;;;;;5.95;2.13;;;;;;;7.18;67.45;100835.78;5031262;28;20443;-47
2021/04/29 06:56:59;;;;;;;3.15;2.35;;;;;;;7.24;67.11;100831.78;5033225;28;20053;-47
2021/04/29 06:59:26;;;;;;;3.47;1.92;;;;;;;7.37;67.03;100832.75;5034681;28;20388;-48
2021/04/29 07:01:52;;;;;;;4.25;2.17;;;;;;;7.49;66.88;100827.44;5033303;28;20091;-47
2021/04/29 07:04:19;;;;;;;8.10;2.55;;;;;;;7.50;66.90;100834.56;5034240;28;20045;-46
2021/04/29 07:06:45;;;;;;;6.18;2.90;;;;;;;7.59;66.72;100843.66;5033456;28;20057;-47
2021/04/29 07:09:11;;;;;;;10.13;3.80;;;;;;;7.68;66.80;100838.94;5034527;28;20073;-47
2021/04/29 07:11:38;;;;;;;7.78;3.10;;;;;;;7.78;66.43;100830.34;5034249;28;20080;-47
2021/04/29 07:14:08;;;;;;;8.10;3.35;;;;;;;7.84;66.53;100834.56;5034771;28;20041;-49
2021/04/29 07:16:34;;;;;;;12.38;4.95;;;;;;;7.90;66.60;100838.78;5032551;28;20045;-52
2021/04/29 07:19:01;;;;;;;13.43;2.95;;;;;;;7.95;66.34;100841.38;5032571;28;20046;-49
2021/04/29 07:21:27;;;;;;;7.82;2.60;;;;;;;7.96;66.08;100837.50;5016167;28;20041;-52
2021/04/29 07:23:56;;;;;;;11.35;3.17;;;;;;;7.89;66.48;100831.66;5004808;28;20041;-50
2021/04/29 07:26:24;;;;;;;9.73;3.25;;;;;;;7.91;66.41;100834.09;5011421;28;20081;-52
2021/04/29 07:28:50;;;;;;;11.23;2.90;;;;;;;7.90;66.54;100838.78;5010149;28;20490;-48
2021/04/29 07:31:16;;;;;;;4.60;2.03;;;;;;;8.03;66.68;100844.44;5022741;28;20575;-49
2021/04/29 07:33:44;;;;;;;8.18;2.38;;;;;;;8.15;66.68;100839.09;4995201;28;20042;-47
2021/04/29 07:36:13;;;;;;;7.43;3.33;;;;;;;8.32;66.61;100839.09;5029215;28;20095;-47
2021/04/29 07:38:43;;;;;;;7.18;2.45;;;;;;;8.48;66.62;100834.66;5012613;28;20095;-50
2021/04/29 07:41:10;;;;;;;9.07;2.92;;;;;;;8.60;66.60;100842.28;5032348;28;20052;-53
2021/04/29 07:43:36;;;;;;;9.40;2.97;;;;;;;8.70;66.48;100839.16;5012067;28;20045;-49
2021/04/29 07:46:02;;;;;;;9.52;2.40;;;;;;;8.77;66.21;100843.00;5030906;28;20060;-49
2021/04/29 07:48:30;;;;;;;4.57;2.35;;;;;;;8.83;66.29;100849.97;5031208;28;20080;-47
2021/04/29 07:50:56;;;;;;;13.07;3.28;;;;;;;8.89;66.10;100834.03;5013451;28;20049;-48
2021/04/29 07:53:23;;;;;;;6.85;2.90;;;;;;;8.94;66.11;100845.72;5029946;28;20124;-48
2021/04/29 07:55:49;;;;;;;6.50;2.25;;;;;;;8.92;66.02;100842.44;5030288;28;20049;-53
2021/04/29 07:58:16;;;;;;;4.32;2.42;;;;;;;8.95;66.19;100850.09;5011754;28;20552;-49
2021/04/29 08:00:54;;;;;;;5.60;2.42;;;;;;;9.01;66.47;100851.53;5012877;28;20494;-47
2021/04/29 08:03:20;;;;;;;8.27;2.53;;;;;;;9.08;65.97;100849.03;5012966;28;20140;-48
2021/04/29 08:05:49;;;;;;;4.55;2.15;;;;;;;9.19;66.10;100852.22;5029900;28;20041;-53
2021/04/29 08:08:17;;;;;;;5.63;2.38;;;;;;;9.27;65.95;100851.38;5029225;28;20392;-48
2021/04/29 08:10:44;;;;;;;7.90;2.30;;;;;;;9.31;65.51;100857.06;5029579;28;20801;-51
2021/04/29 08:13:11;;;;;;;6.50;2.35;;;;;;;9.33;65.32;100857.53;5031216;28;20073;-47
2021/04/29 08:15:40;;;;;;;10.57;2.40;;;;;;;9.35;65.43;100853.28;5029917;28;20160;-50
2021/04/29 08:18:07;;;;;;;5.63;2.20;;;;;;;9.39;65.18;100853.44;5038562;28;20048;-51
2021/04/29 08:20:34;;;;;;;7.07;2.35;;;;;;;9.46;65.17;100856.47;5040188;28;20053;-50
2021/04/29 08:23:00;;;;;;;7.25;2.55;;;;;;;9.54;65.19;100850.88;5029762;28;20538;-49
2021/04/29 08:25:26;;;;;;;4.82;2.20;;;;;;;9.68;64.83;100865.28;5030166;28;20073;-50
2021/04/29 08:27:53;;;;;;;5.10;2.38;;;;;;;9.91;65.00;100857.44;5029432;28;20069;-51
2021/04/29 08:30:26;;;;;;;7.30;2.53;;;;;;;10.05;64.78;100860.75;5029161;28;20053;-49
2021/04/29 08:32:58;;;;;;;8.48;3.58;;;;;;;10.14;64.66;100861.50;5020304;28;20113;-49
2021/04/29 08:35:25;;;;;;;8.73;2.90;;;;;;;10.17;64.58;100854.47;5029178;28;20034;-47
2021/04/29 08:37:52;;;;;;;5.47;2.20;;;;;;;10.14;64.25;100861.50;5029063;28;20049;-44
2021/04/29 08:40:21;;;;;;;6.70;2.42;;;;;;;10.05;63.93;100857.16;5028843;28;20116;-46
2021/04/29 08:42:48;;;;;;;5.70;2.20;;;;;;;9.91;63.77;100857.44;5030371;28;20049;-45
2021/04/29 08:45:16;;;;;;;4.60;3.13;;;;;;;9.80;63.83;100864.50;5013776;28;20045;-46
2021/04/29 08:47:49;;;;;;;6.57;2.47;;;;;;;9.70;63.91;100859.41;5029350;28;20084;-48
2021/04/29 08:50:16;;;;;;;6.95;2.10;;;;;;;9.63;64.01;100868.25;5028540;28;20041;-45
2021/04/29 08:52:43;;;;;;;8.23;2.22;;;;;;;9.51;64.16;100859.03;5029021;28;20029;-47
2021/04/29 08:55:15;;;;;;;8.07;2.85;;;;;;;9.31;64.58;100865.34;5029828;28;20045;-46
2021/04/29 08:57:43;;;;;;;5.82;2.85;;;;;;;9.26;64.50;100865.53;5029245;28;20079;-48
2021/04/29 09:00:13;;;;;;;6.93;2.85;;;;;;;9.26;64.83;100868.31;5028674;28;20448;-48
2021/04/29 09:02:43;;;;;;;3.60;2.08;;;;;;;9.09;65.23;100866.44;5011542;28;20053;-44
2021/04/29 09:05:21;;;;;;;2.08;0.98;;;;;;;8.87;64.55;100866.72;5021578;28;20045;-46
2021/04/29 09:08:08;;;;;;;3.13;1.20;;;;;;;8.77;62.95;100873.38;5025249;28;20103;-50
2021/04/29 09:10:41;;;;;;;1.38;0.70;;;;;;;8.77;63.28;100856.81;5009474;28;20052;-45
2021/04/29 09:13:21;;;;;;;;;;;;;;;8.84;62.99;100873.66;5029631;28;20128;-49
2021/04/29 09:15:49;;;;;;;2.95;0.90;;;;;;;8.97;62.81;100869.91;5027104;28;20425;-46
2021/04/29 09:18:18;;;;;;;2.55;0.60;;;;;;;9.09;62.72;100864.47;5028721;28;20030;-45
2021/04/29 09:20:55;;;;;;;1.90;1.10;;;;;;;9.13;62.45;100870.94;5008794;28;20052;-51
2021/04/29 09:23:24;;;;;;;3.75;0.73;;;;;;;9.18;61.69;100879.06;5028307;28;20091;-46
2021/04/29 09:25:53;;;;;;;1.77;0.50;;;;;;;9.24;61.52;100887.94;5027781;28;20060;-48
2021/04/29 09:28:20;;;;;;;4.20;0.68;;;;;;;9.33;61.25;100879.63;5013296;28;20126;-46
2021/04/29 09:30:47;;;;;;;2.25;0.82;;;;;;;9.52;61.27;100889.13;5028142;28;20069;-46
2021/04/29 09:33:13;;;;;;;3.92;1.20;;;;;;;9.83;61.08;100899.78;5027206;28;20111;-45
2021/04/29 09:35:40;;;;;;;0.75;0.55;;;;;;;10.13;60.96;100893.09;5027277;28;20095;-47
2021/04/29 09:38:10;;;;;;;3.80;0.70;;;;;;;10.40;60.70;100902.78;5027456;28;20144;-48
2021/04/29 09:40:40;;;;;;;2.38;0.60;;;;;;;10.53;60.26;100904.44;5011167;28;20045;-46
2021/04/29 09:43:08;;;;;;;1.67;0.60;;;;;;;10.56;59.54;100900.19;5028100;28;20052;-48
2021/04/29 09:45:35;;;;;;;1.20;0.40;;;;;;;10.39;58.58;100910.28;5009118;28;20042;-48
2021/04/29 09:48:08;;;;;;;0.70;0.65;;;;;;;10.33;57.02;100903.31;5025036;28;20045;-47
2021/04/29 09:50:40;;;;;;;7.97;1.02;;;;;;;10.43;57.01;100901.28;5027586;28;20049;-51
2021/04/29 09:53:09;;;;;;;2.42;0.60;;;;;;;10.66;56.96;100910.81;5027104;28;20558;-49
2021/04/29 09:55:37;;;;;;;0.90;0.60;;;;;;;11.37;56.81;100902.97;5011412;28;20060;-47
2021/04/29 09:58:29;;;;;;;1.08;0.38;;;;;;;12.14;55.67;100905.41;5024568;28;20084;-49
2021/04/29 10:00:56;;;;;;;1.52;0.50;;;;;;;12.48;55.07;100909.56;5020942;28;20061;-47
2021/04/29 10:03:22;;;;;;;2.85;0.60;;;;;;;13.09;54.30;100912.03;5027062;28;20045;-50
2021/04/29 10:05:53;;;;;;;1.60;0.73;;;;;;;13.72;53.58;100898.84;5026804;28;20497;-47
2021/04/29 10:08:26;;;;;;;0.67;0.53;;;;;;;14.23;51.80;100897.63;5027588;28;20049;-51
2021/04/29 10:10:55;;;;;;;3.80;0.50;;;;;;;14.75;50.95;100907.41;5014083;28;20142;-46
2021/04/29 10:13:28;;;;;;;1.77;0.43;;;;;;;15.14;49.18;100918.13;5027776;28;20503;-49
2021/04/29 10:15:56;;;;;;;1.08;0.35;;;;;;;15.52;49.70;100916.38;5028229;28;20049;-47
2021/04/29 10:18:24;;;;;;;1.35;1.05;;;;;;;15.81;48.21;100915.66;5028568;28;20513;-48
2021/04/29 10:20:55;;;;;;;2.90;0.40;;;;;;;16.03;47.43;100916.75;5023502;28;20056;-48
2021/04/29 10:23:22;;;;;;;2.75;0.80;;;;;;;16.25;46.72;100916.69;5027273;28;20402;-48
2021/04/29 10:25:59;;;;;;;2.28;0.90;;;;;;;16.58;45.38;100917.91;5028130;28;20119;-46
2021/04/29 10:28:47;;;;;;;0.35;0.30;;;;;;;16.83;44.93;100916.19;5027295;28;20395;-48
2021/04/29 10:31:19;;;;;;;0.90;0.35;;;;;;;16.72;45.23;100923.66;5029593;28;20044;-47
2021/04/29 10:34:12;;;;;;;2.25;0.20;;;;;;;16.37;44.03;100919.22;5031764;28;20053;-46
2021/04/29 10:36:39;;;;;;;2.38;0.43;;;;;;;16.34;44.69;100925.56;5027676;28;20168;-49
2021/04/29 10:39:17;;;;;;;0.30;0.22;;;;;;;16.32;43.72;100911.19;5030814;28;20584;-49
2021/04/29 10:42:05;;;;;;;1.05;0.40;;;;;;;16.18;44.39;100908.19;5033077;28;20042;-47
2021/04/29 10:44:41;;;;;;;2.88;0.55;;;;;;;15.99;44.34;100913.91;5031882;28;20045;-49
2021/04/29 10:47:09;;;;;;;1.45;0.70;;;;;;;15.97;44.76;100916.28;5013396;28;20091;-49
2021/04/29 10:49:42;;;;;;;0.52;0.40;;;;;;;15.80;44.83;100925.22;5030568;28;20069;-49
2021/04/29 10:52:08;;;;;;;3.30;1.40;;;;;;;15.56;44.36;100917.25;5031644;28;20037;-46
2021/04/29 10:54:35;;;;;;;1.42;0.60;;;;;;;15.13;44.80;100916.53;5031299;28;20045;-45
2021/04/29 10:57:07;;;;;;;1.50;0.73;;;;;;;15.10;44.25;100917.25;5013869;28;20064;-48
2021/04/29 10:59:44;;;;;;;2.00;0.50;;;;;;;15.18;45.08;100919.00;5030333;28;20049;-50
2021/04/29 11:02:39;;;;;;;2.30;1.05;;;;;;;15.16;44.49;100914.97;5029341;28;20178;-46
2021/04/29 11:05:19;;;;;;;1.75;0.60;;;;;;;15.02;45.27;100909.94;5011646;28;20152;-46
2021/04/29 11:07:48;;;;;;;4.50;0.63;;;;;;;14.88;45.63;100915.25;5021883;28;20407;-46
2021/04/29 11:10:18;;;;;;;2.97;0.57;;;;;;;14.75;45.44;100905.44;5032060;28;20072;-48
2021/04/29 11:12:56;;;;;;;1.58;1.27;;;;;;;14.51;45.55;100911.34;5030562;28;20041;-50
2021/04/29 11:15:38;;;;;;;2.22;0.60;;;;;;;14.09;44.73;100910.41;5031205;28;20128;-46
2021/04/29 11:18:09;;;;;;;2.20;0.90;;;;;;;13.59;45.84;100905.72;5040987;28;20108;-47
2021/04/29 11:20:49;;;;;;;1.55;0.40;;;;;;;13.42;46.52;100907.69;5038420;28;20053;-47
2021/04/29 11:23:18;;;;;;;1.63;0.47;;;;;;;13.44;46.68;100907.34;5030746;28;20096;-46
2021/04/29 11:25:45;;;;;;;2.53;0.57;;;;;;;13.51;46.67;100913.06;5030763;28;20479;-47
2021/04/29 11:28:12;;;;;;;1.08;0.60;;;;;;;13.42;46.78;100904.91;5031454;28;20045;-47
2021/04/29 11:30:39;;;;;;;0.85;0.50;;;;;;;13.24;46.71;100902.88;5030329;28;20107;-48
2021/04/29 11:33:10;;;;;;;2.90;0.50;;;;;;;13.34;46.51;100896.78;5029944;28;20037;-47
2021/04/29 11:35:39;;;;;;;0.88;0.52;;;;;;;13.51;46.92;100912.28;5029034;28;20491;-47
2021/04/29 11:38:08;;;;;;;2.60;1.08;;;;;;;13.56;46.82;100904.44;5030866;28;20073;-49